Pocasset, Massachusetts
Current Conditions -  °F | °C
As of 9:15 AM on Thursday 29 Jan 2015 (Local Time) from KFMH Reporting Station
Clear Clear  
Wind Chill: 23°   Ceiling: Unl
Heat Index: 23°   Visibility: 10mi
Dew Point: 10°   Wind: 0mph
Humidity: 59%   Direction: NA
Pressure: 30.3"   Gusts: NA
Location:  41.69°N, 70.64°W
Report Text: KFMH 291415Z AUTO 00000KT 10SM CLR M05/M12 A3030 RMK AO2
Loading
Personal Weather Stations






























Interactive Weather Map New forecast layout! Learn more

10-Day Weather Forecast

Advertisements
Track Severe Weather on mobile